^^
Cohasset Weather Station Historical Data
 
Daily Summary for February 21, 2019 Units:  English    Metric   Both
Daily Weekly Monthly Yearly Custom
  Current: High: Low: Average:
Temperature: 30.6 °F 30.6 °F 26.8 °F 28 °F
Dew Point: 21.3 °F 28.5 °F 20.5 °F 24.1 °F
Humidity: 68% 96% 68% 86%
Wind Speed: 5.8mph 6.8mph 0.0mph 0.8mph
Wind Gust: 2.9mph 4.1mph - -
WindNNW - - SSE
Pressure: 29.74 in 29.74 in 29.69 in -
Precipitation: 0.00 in      
Historical Graphs
 
 
Tabular Data for February 21, 2019
Time Temperature Dew Point Pressure Wind Wind Speed Wind Gust Humidity Rainfall Rate (Hourly) solar
00:04 29.5 °F 28.5 °F 29.71 in Calm     96% 0.00 in WeatherDisplay:10.37 W/m2
00:09 29.5 °F 28.2 °F 29.71 in Calm     95% 0.00 in WeatherDisplay:10.37 W/m2
00:14 29.5 °F 28.2 °F 29.71 in Calm     95% 0.00 in WeatherDisplay:10.37 W/m2
00:19 29.5 °F 28.5 °F 29.70 in Calm     96% 0.00 in WeatherDisplay:10.37 W/m2
00:24 29.1 °F 28.1 °F 29.70 in Calm     96% 0.00 in WeatherDisplay:10.37 W/m2
00:29 28.9 °F 27.9 °F 29.71 in Calm     96% 0.00 in WeatherDisplay:10.37 W/m2
00:34 28.9 °F 27.9 °F 29.71 in Calm     96% 0.00 in WeatherDisplay:10.37 W/m2
00:39 28.8 °F 27.3 °F 29.71 in Calm     94% 0.00 in WeatherDisplay:10.37 W/m2
00:44 28.8 °F 27.3 °F 29.70 in Calm     94% 0.00 in WeatherDisplay:10.37 W/m2
00:49 28.6 °F 27.1 °F 29.70 in Calm     94% 0.00 in WeatherDisplay:10.37 W/m2
00:54 28.4 °F 26.9 °F 29.71 in Calm     94% 0.00 in WeatherDisplay:10.37 W/m2
00:59 28.4 °F 26.9 °F 29.71 in Calm     94% 0.00 in WeatherDisplay:10.37 W/m2
01:04 28.2 °F 27.2 °F 29.70 in Calm     96% 0.00 in WeatherDisplay:10.37 W/m2
01:09 28.2 °F 27.2 °F 29.70 in Calm     96% 0.00 in WeatherDisplay:10.37 W/m2
01:14 28.0 °F 26.8 °F 29.70 in Calm     95% 0.00 in WeatherDisplay:10.37 W/m2
01:19 27.9 °F 26.7 °F 29.70 in Calm     95% 0.00 in WeatherDisplay:10.37 W/m2
01:24 27.9 °F 26.7 °F 29.70 in Calm     95% 0.00 in WeatherDisplay:10.37 W/m2
01:29 27.7 °F 26.5 °F 29.70 in Calm     95% 0.00 in WeatherDisplay:10.37 W/m2
01:34 27.7 °F 26.5 °F 29.70 in Calm     95% 0.00 in WeatherDisplay:10.37 W/m2
01:38 27.5 °F 26.3 °F 29.70 in Calm     95% 0.00 in WeatherDisplay:10.37 W/m2
01:44 27.5 °F 26.3 °F 29.71 in Calm     95% 0.00 in WeatherDisplay:10.37 W/m2
01:49 27.5 °F 26.3 °F 29.71 in Calm     95% 0.00 in WeatherDisplay:10.37 W/m2
01:54 27.3 °F 26.3 °F 29.70 in Calm     96% 0.00 in WeatherDisplay:10.37 W/m2
01:59 27.3 °F 26.3 °F 29.70 in Calm     96% 0.00 in WeatherDisplay:10.37 W/m2
02:04 27.1 °F 26.1 °F 29.70 in Calm     96% 0.00 in WeatherDisplay:10.37 W/m2
02:09 27.1 °F 26.1 °F 29.70 in Calm     96% 0.00 in WeatherDisplay:10.37 W/m2
02:14 27.1 °F 26.1 °F 29.70 in Calm     96% 0.00 in WeatherDisplay:10.37 W/m2
02:19 27.0 °F 26.0 °F 29.70 in Calm     96% 0.00 in WeatherDisplay:10.37 W/m2
02:24 27.0 °F 26.0 °F 29.70 in Calm     96% 0.00 in WeatherDisplay:10.37 W/m2
02:29 27.0 °F 25.8 °F 29.70 in Calm     95% 0.00 in WeatherDisplay:10.37 W/m2
02:34 27.0 °F 25.8 °F 29.70 in Calm     95% 0.00 in WeatherDisplay:10.37 W/m2
02:39 27.0 °F 25.5 °F 29.70 in Calm     94% 0.00 in WeatherDisplay:10.37 W/m2
02:44 26.8 °F 25.3 °F 29.70 in Calm     94% 0.00 in WeatherDisplay:10.37 W/m2
02:48 26.8 °F 25.3 °F 29.70 in Calm     94% 0.00 in WeatherDisplay:10.37 W/m2
02:54 26.8 °F 25.6 °F 29.70 in Calm     95% 0.00 in WeatherDisplay:10.37 W/m2
02:59 26.8 °F 25.6 °F 29.70 in Calm     95% 0.00 in WeatherDisplay:10.37 W/m2
03:04 26.8 °F 25.3 °F 29.70 in Calm     94% 0.00 in WeatherDisplay:10.37 W/m2
03:08 26.8 °F 24.8 °F 29.70 in Calm     92% 0.00 in WeatherDisplay:10.37 W/m2
03:14 27.0 °F 24.7 °F 29.70 in Calm     91% 0.00 in WeatherDisplay:10.37 W/m2
03:19 27.0 °F 25.0 °F 29.70 in Calm     92% 0.00 in WeatherDisplay:10.37 W/m2
03:24 27.0 °F 25.0 °F 29.70 in Calm     92% 0.00 in WeatherDisplay:10.37 W/m2
03:29 27.1 °F 24.6 °F 29.69 in Calm     90% 0.00 in WeatherDisplay:10.37 W/m2
03:34 27.1 °F 24.8 °F 29.69 in Calm     91% 0.00 in WeatherDisplay:10.37 W/m2
03:39 27.3 °F 24.2 °F 29.69 in Calm     88% 0.00 in WeatherDisplay:10.37 W/m2
03:44 27.7 °F 24.1 °F 29.69 in Calm     86% 0.00 in WeatherDisplay:10.37 W/m2
03:49 27.9 °F 24.3 °F 29.69 in Calm     86% 0.00 in WeatherDisplay:10.37 W/m2
03:54 27.5 °F 24.4 °F 29.69 in Calm     88% 0.00 in WeatherDisplay:10.37 W/m2
03:58 27.5 °F 24.1 °F 29.69 in Calm     87% 0.00 in WeatherDisplay:10.37 W/m2
04:04 27.5 °F 23.9 °F 29.69 in Calm     86% 0.00 in WeatherDisplay:10.37 W/m2
04:09 27.5 °F 23.6 °F 29.69 in ESE 2.8 mph 1.9 mph 85% 0.00 in WeatherDisplay:10.37 W/m2
04:14 28.2 °F 23.4 °F 29.69 in South 2.3 mph 1.9 mph 82% 0.00 in WeatherDisplay:10.37 W/m2
04:19 28.2 °F 23.4 °F 29.69 in East 2.3 mph 0.7 mph 82% 0.00 in WeatherDisplay:10.37 W/m2
04:24 28.4 °F 22.4 °F 29.69 in ESE 4.6 mph 3.4 mph 78% 0.00 in WeatherDisplay:10.37 W/m2
04:29 28.2 °F 23.1 °F 29.69 in Calm     81% 0.00 in WeatherDisplay:10.37 W/m2
04:34 28.2 °F 22.8 °F 29.69 in ESE 2.8 mph 1.7 mph 80% 0.00 in WeatherDisplay:10.37 W/m2
04:39 28.6 °F 22.9 °F 29.69 in ESE 3.5 mph 3.8 mph 79% 0.00 in WeatherDisplay:10.37 W/m2
04:44 28.8 °F 23.4 °F 29.69 in ESE 2.3 mph 1.5 mph 80% 0.00 in WeatherDisplay:10.37 W/m2
04:49 28.6 °F 23.2 °F 29.69 in Calm     80% 0.00 in WeatherDisplay:10.37 W/m2
04:54 28.4 °F 22.7 °F 29.70 in South 2.8 mph 0.3 mph 79% 0.00 in WeatherDisplay:10.37 W/m2
04:59 28.8 °F 22.8 °F 29.70 in Calm     78% 0.00 in WeatherDisplay:10.37 W/m2
05:04 28.6 °F 22.0 °F 29.70 in Calm     76% 0.00 in WeatherDisplay:10.37 W/m2
05:09 28.4 °F 21.8 °F 29.70 in SSE 2.3 mph 1.2 mph 76% 0.00 in WeatherDisplay:10.37 W/m2
05:14 28.6 °F 22.3 °F 29.70 in Calm     77% 0.00 in WeatherDisplay:10.37 W/m2
05:19 28.2 °F 22.2 °F 29.69 in Calm     78% 0.00 in WeatherDisplay:10.37 W/m2
05:24 28.2 °F 23.1 °F 29.69 in Calm     81% 0.00 in WeatherDisplay:10.37 W/m2
05:29 28.4 °F 22.7 °F 29.70 in Calm     79% 0.00 in WeatherDisplay:10.37 W/m2
05:34 28.4 °F 22.7 °F 29.70 in ESE 4.6 mph 3.7 mph 79% 0.00 in WeatherDisplay:10.37 W/m2
05:39 28.8 °F 22.5 °F 29.70 in SSE 4.6 mph 4.1 mph 77% 0.00 in WeatherDisplay:10.37 W/m2
05:44 28.6 °F 21.4 °F 29.70 in Calm     74% 0.00 in WeatherDisplay:10.37 W/m2
05:49 28.6 °F 22.0 °F 29.70 in Calm     76% 0.00 in WeatherDisplay:10.37 W/m2
05:54 28.6 °F 21.7 °F 29.70 in Calm     75% 0.00 in WeatherDisplay:10.37 W/m2
05:59 28.4 °F 21.8 °F 29.70 in Calm     76% 0.00 in WeatherDisplay:10.37 W/m2
06:04 28.6 °F 21.7 °F 29.70 in Calm     75% 0.00 in WeatherDisplay:10.37 W/m2
06:09 28.9 °F 21.7 °F 29.70 in SSE 4.6 mph 3.1 mph 74% 0.00 in WeatherDisplay:10.37 W/m2
06:14 28.8 °F 20.9 °F 29.70 in Calm     72% 0.00 in WeatherDisplay:10.37 W/m2
06:19 28.6 °F 21.7 °F 29.70 in South 5.8 mph 2.4 mph 75% 0.00 in WeatherDisplay:10.37 W/m2
06:24 28.6 °F 21.0 °F 29.70 in East 4.6 mph 2.5 mph 73% 0.00 in WeatherDisplay:10.37 W/m2
06:29 28.0 °F 22.3 °F 29.71 in Calm     79% 0.00 in WeatherDisplay:10.37 W/m2
06:34 28.0 °F 21.4 °F 29.71 in SW 3.5 mph 1.6 mph 76% 0.00 in WeatherDisplay:10.37 W/m2
06:39 28.0 °F 22.0 °F 29.71 in Calm     78% 0.00 in WeatherDisplay:10.37 W/m2
06:44 27.9 °F 23.4 °F 29.71 in Calm     83% 0.00 in WeatherDisplay:10.37 W/m2
06:49 27.5 °F 21.8 °F 29.71 in SW 1.5 mph 0.5 mph 79% 0.00 in WeatherDisplay:10.37 W/m2
06:54 27.5 °F 23.0 °F 29.71 in Calm     83% 0.00 in WeatherDisplay:10.37 W/m2
06:59 27.3 °F 22.5 °F 29.71 in South 1.2 mph   82% 0.00 in WeatherDisplay:10.37 W/m2
07:04 27.3 °F 22.8 °F 29.71 in Calm     83% 0.00 in WeatherDisplay:10.37 W/m2
07:09 27.1 °F 21.2 °F 29.71 in South 2.8 mph 0.9 mph 78% 0.00 in WeatherDisplay:10.37 W/m2
07:14 27.0 °F 22.2 °F 29.71 in Calm     82% 0.00 in WeatherDisplay:10.37 W/m2
07:19 27.0 °F 21.9 °F 29.71 in SW 2.3 mph 0.7 mph 81% 0.00 in WeatherDisplay:10.37 W/m2
07:24 26.8 °F 22.0 °F 29.71 in Calm     82% 0.00 in WeatherDisplay:10.37 W/m2
07:29 27.0 °F 20.7 °F 29.72 in SSW 3.5 mph 1.9 mph 77% 0.00 in WeatherDisplay:10.37 W/m2
07:34 27.3 °F 21.9 °F 29.72 in Calm     80% 0.00 in WeatherDisplay:10.37 W/m2
07:39 27.5 °F 22.1 °F 29.72 in Calm     80% 0.00 in WeatherDisplay:10.37 W/m2
07:44 27.5 °F 21.8 °F 29.72 in SW 6.8 mph 3.4 mph 79% 0.00 in WeatherDisplay:10.37 W/m2
07:49 27.7 °F 20.5 °F 29.72 in Calm     74% 0.00 in WeatherDisplay:10.37 W/m2
07:54 27.9 °F 22.8 °F 29.73 in Calm     81% 0.00 in WeatherDisplay:10.37 W/m2
07:59 27.9 °F 22.2 °F 29.73 in Calm     79% 0.00 in WeatherDisplay:10.37 W/m2
08:04 28.2 °F 22.5 °F 29.73 in Calm     79% 0.00 in WeatherDisplay:10.37 W/m2
08:09 28.2 °F 22.5 °F 29.73 in Calm     79% 0.00 in WeatherDisplay:10.37 W/m2
08:14 28.2 °F 22.2 °F 29.73 in Calm     78% 0.00 in WeatherDisplay:10.37 W/m2
08:19 28.2 °F 21.9 °F 29.74 in Calm     77% 0.00 in WeatherDisplay:10.37 W/m2
08:24 28.6 °F 23.2 °F 29.74 in Calm     80% 0.00 in WeatherDisplay:10.37 W/m2
08:29 29.8 °F 22.2 °F 29.74 in Calm     73% 0.00 in WeatherDisplay:10.37 W/m2
08:34 30.6 °F 21.3 °F 29.74 in NNW 5.8 mph 2.9 mph 68% 0.00 in WeatherDisplay:10.37 W/m2
Cohasset, California, USA
Compliments of Weather Underground - 1.25 mb